sensor_id;sensor_type;location;lat;lon;timestamp;temperature;humidity
15959;DHT22;8078;47.822;9.402;2022-09-30T00:01:07;7.10;99.90
15959;DHT22;8078;47.822;9.402;2022-09-30T00:03:32;7.00;99.90
15959;DHT22;8078;47.822;9.402;2022-09-30T00:06:00;7.00;99.90
15959;DHT22;8078;47.822;9.402;2022-09-30T00:08:26;7.00;99.90
15959;DHT22;8078;47.822;9.402;2022-09-30T00:11:03;7.10;99.90
15959;DHT22;8078;47.822;9.402;2022-09-30T00:13:31;7.10;99.90
15959;DHT22;8078;47.822;9.402;2022-09-30T00:15:57;7.00;99.90
15959;DHT22;8078;47.822;9.402;2022-09-30T00:18:22;6.90;99.90
15959;DHT22;8078;47.822;9.402;2022-09-30T00:20:48;6.80;99.90
15959;DHT22;8078;47.822;9.402;2022-09-30T00:23:13;6.70;99.90
15959;DHT22;8078;47.822;9.402;2022-09-30T00:25:39;6.60;99.90
15959;DHT22;8078;47.822;9.402;2022-09-30T00:28:05;6.60;99.90
15959;DHT22;8078;47.822;9.402;2022-09-30T00:30:32;6.60;99.90
15959;DHT22;8078;47.822;9.402;2022-09-30T00:32:59;6.60;99.90
15959;DHT22;8078;47.822;9.402;2022-09-30T00:35:24;6.60;99.90
15959;DHT22;8078;47.822;9.402;2022-09-30T00:37:50;6.60;99.90
15959;DHT22;8078;47.822;9.402;2022-09-30T00:40:18;6.70;99.90
15959;DHT22;8078;47.822;9.402;2022-09-30T00:42:44;6.70;99.90
15959;DHT22;8078;47.822;9.402;2022-09-30T00:45:11;6.70;99.90
15959;DHT22;8078;47.822;9.402;2022-09-30T00:47:48;6.70;99.90
15959;DHT22;8078;47.822;9.402;2022-09-30T00:52:46;6.80;99.90
15959;DHT22;8078;47.822;9.402;2022-09-30T00:55:46;6.80;99.90
15959;DHT22;8078;47.822;9.402;2022-09-30T00:58:32;6.80;99.90
15959;DHT22;8078;47.822;9.402;2022-09-30T01:01:00;6.80;99.90
15959;DHT22;8078;47.822;9.402;2022-09-30T01:03:37;6.80;99.90
15959;DHT22;8078;47.822;9.402;2022-09-30T01:06:03;6.80;99.90
15959;DHT22;8078;47.822;9.402;2022-09-30T01:08:31;6.80;99.90
15959;DHT22;8078;47.822;9.402;2022-09-30T01:10:58;6.80;99.90
15959;DHT22;8078;47.822;9.402;2022-09-30T01:13:24;6.80;99.90
15959;DHT22;8078;47.822;9.402;2022-09-30T01:18:49;6.90;99.90
15959;DHT22;8078;47.822;9.402;2022-09-30T01:24:45;6.90;99.90
15959;DHT22;8078;47.822;9.402;2022-09-30T01:27:17;6.90;99.90
15959;DHT22;8078;47.822;9.402;2022-09-30T01:30:07;6.90;99.90
15959;DHT22;8078;47.822;9.402;2022-09-30T01:32:38;6.80;99.90
15959;DHT22;8078;47.822;9.402;2022-09-30T01:35:23;6.80;99.90
15959;DHT22;8078;47.822;9.402;2022-09-30T01:46:16;6.90;99.90
15959;DHT22;8078;47.822;9.402;2022-09-30T01:51:44;6.90;99.90
15959;DHT22;8078;47.822;9.402;2022-09-30T02:02:26;7.10;99.90
15959;DHT22;8078;47.822;9.402;2022-09-30T02:04:57;7.30;99.90
15959;DHT22;8078;47.822;9.402;2022-09-30T02:07:33;7.40;99.90
15959;DHT22;8078;47.822;9.402;2022-09-30T02:10:26;7.40;99.90
15959;DHT22;8078;47.822;9.402;2022-09-30T02:12:59;7.40;99.90
15959;DHT22;8078;47.822;9.402;2022-09-30T02:15:43;7.30;99.90
15959;DHT22;8078;47.822;9.402;2022-09-30T02:18:25;7.20;99.90
15959;DHT22;8078;47.822;9.402;2022-09-30T02:20:57;7.10;99.90
15959;DHT22;8078;47.822;9.402;2022-09-30T02:23:32;7.00;99.90
15959;DHT22;8078;47.822;9.402;2022-09-30T02:26:01;7.00;99.90
15959;DHT22;8078;47.822;9.402;2022-09-30T02:28:36;7.00;99.90
15959;DHT22;8078;47.822;9.402;2022-09-30T02:31:04;6.90;99.90
15959;DHT22;8078;47.822;9.402;2022-09-30T02:33:40;6.90;99.90
15959;DHT22;8078;47.822;9.402;2022-09-30T02:39:18;6.90;99.90
15959;DHT22;8078;47.822;9.402;2022-09-30T02:41:48;6.90;99.90
15959;DHT22;8078;47.822;9.402;2022-09-30T02:44:16;6.90;99.90
15959;DHT22;8078;47.822;9.402;2022-09-30T02:47:13;6.90;99.90
15959;DHT22;8078;47.822;9.402;2022-09-30T02:49:48;6.90;99.90
15959;DHT22;8078;47.822;9.402;2022-09-30T02:58:13;7.00;99.90
15959;DHT22;8078;47.822;9.402;2022-09-30T03:00:40;7.00;99.90
15959;DHT22;8078;47.822;9.402;2022-09-30T03:03:26;7.00;99.90
15959;DHT22;8078;47.822;9.402;2022-09-30T03:05:52;7.00;99.90
15959;DHT22;8078;47.822;9.402;2022-09-30T03:08:17;7.10;99.90
15959;DHT22;8078;47.822;9.402;2022-09-30T03:10:43;7.10;99.90
15959;DHT22;8078;47.822;9.402;2022-09-30T03:13:21;7.10;99.90
15959;DHT22;8078;47.822;9.402;2022-09-30T03:16:05;7.10;99.90
15959;DHT22;8078;47.822;9.402;2022-09-30T03:29:48;7.10;99.90
15959;DHT22;8078;47.822;9.402;2022-09-30T03:40:42;7.10;99.90
15959;DHT22;8078;47.822;9.402;2022-09-30T03:43:35;7.10;99.90
15959;DHT22;8078;47.822;9.402;2022-09-30T03:48:34;7.10;99.90
15959;DHT22;8078;47.822;9.402;2022-09-30T03:51:01;7.10;99.90
15959;DHT22;8078;47.822;9.402;2022-09-30T03:53:27;7.10;99.90
15959;DHT22;8078;47.822;9.402;2022-09-30T03:55:53;7.10;99.90
15959;DHT22;8078;47.822;9.402;2022-09-30T03:58:20;7.20;99.90
15959;DHT22;8078;47.822;9.402;2022-09-30T04:00:52;7.20;99.90
15959;DHT22;8078;47.822;9.402;2022-09-30T04:03:19;7.20;99.90
15959;DHT22;8078;47.822;9.402;2022-09-30T04:05:46;7.20;99.90
15959;DHT22;8078;47.822;9.402;2022-09-30T04:08:12;7.20;99.90
15959;DHT22;8078;47.822;9.402;2022-09-30T04:10:39;7.20;99.90
15959;DHT22;8078;47.822;9.402;2022-09-30T04:13:06;7.10;99.90
15959;DHT22;8078;47.822;9.402;2022-09-30T04:15:32;7.20;99.90
15959;DHT22;8078;47.822;9.402;2022-09-30T04:17:58;7.10;99.90
15959;DHT22;8078;47.822;9.402;2022-09-30T04:20:24;7.20;99.90
15959;DHT22;8078;47.822;9.402;2022-09-30T04:22:49;7.20;99.90
15959;DHT22;8078;47.822;9.402;2022-09-30T04:25:15;7.10;99.90
15959;DHT22;8078;47.822;9.402;2022-09-30T04:27:40;7.10;99.90
15959;DHT22;8078;47.822;9.402;2022-09-30T04:30:06;7.10;99.90
15959;DHT22;8078;47.822;9.402;2022-09-30T04:32:32;7.00;99.90
15959;DHT22;8078;47.822;9.402;2022-09-30T04:34:57;7.00;99.90
15959;DHT22;8078;47.822;9.402;2022-09-30T04:37:23;7.00;99.90
15959;DHT22;8078;47.822;9.402;2022-09-30T04:39:48;7.00;99.90
15959;DHT22;8078;47.822;9.402;2022-09-30T04:42:14;6.90;99.90
15959;DHT22;8078;47.822;9.402;2022-09-30T04:44:41;6.90;99.90
15959;DHT22;8078;47.822;9.402;2022-09-30T04:47:07;6.90;99.90
15959;DHT22;8078;47.822;9.402;2022-09-30T04:49:33;6.80;99.90
15959;DHT22;8078;47.822;9.402;2022-09-30T04:51:58;6.80;99.90
15959;DHT22;8078;47.822;9.402;2022-09-30T04:54:24;6.80;99.90
15959;DHT22;8078;47.822;9.402;2022-09-30T04:56:49;6.80;99.90
15959;DHT22;8078;47.822;9.402;2022-09-30T04:59:15;6.70;99.90
15959;DHT22;8078;47.822;9.402;2022-09-30T05:01:40;6.70;99.90
15959;DHT22;8078;47.822;9.402;2022-09-30T05:04:07;6.70;99.90
15959;DHT22;8078;47.822;9.402;2022-09-30T05:06:33;6.80;99.90
15959;DHT22;8078;47.822;9.402;2022-09-30T05:08:59;6.80;99.90
15959;DHT22;8078;47.822;9.402;2022-09-30T05:11:25;6.80;99.90
15959;DHT22;8078;47.822;9.402;2022-09-30T05:13:50;6.80;99.90
15959;DHT22;8078;47.822;9.402;2022-09-30T05:16:16;6.80;99.90
15959;DHT22;8078;47.822;9.402;2022-09-30T05:18:42;6.80;99.90
15959;DHT22;8078;47.822;9.402;2022-09-30T05:21:11;6.70;99.90
15959;DHT22;8078;47.822;9.402;2022-09-30T05:23:37;6.70;99.90
15959;DHT22;8078;47.822;9.402;2022-09-30T05:26:03;6.70;99.90
15959;DHT22;8078;47.822;9.402;2022-09-30T05:28:29;6.70;99.90
15959;DHT22;8078;47.822;9.402;2022-09-30T05:31:00;6.70;99.90
15959;DHT22;8078;47.822;9.402;2022-09-30T05:33:28;6.70;99.90
15959;DHT22;8078;47.822;9.402;2022-09-30T05:35:54;6.70;99.90
15959;DHT22;8078;47.822;9.402;2022-09-30T05:38:22;6.70;99.90
15959;DHT22;8078;47.822;9.402;2022-09-30T05:40:48;6.70;99.90
15959;DHT22;8078;47.822;9.402;2022-09-30T05:43:13;6.70;99.90
15959;DHT22;8078;47.822;9.402;2022-09-30T05:45:39;6.70;99.90
15959;DHT22;8078;47.822;9.402;2022-09-30T05:48:04;6.70;99.90
15959;DHT22;8078;47.822;9.402;2022-09-30T05:50:31;6.70;99.90
15959;DHT22;8078;47.822;9.402;2022-09-30T05:52:56;6.80;99.90
15959;DHT22;8078;47.822;9.402;2022-09-30T05:55:22;6.80;99.90
15959;DHT22;8078;47.822;9.402;2022-09-30T05:57:49;6.90;99.90
15959;DHT22;8078;47.822;9.402;2022-09-30T06:00:17;6.90;99.90
15959;DHT22;8078;47.822;9.402;2022-09-30T06:02:42;6.90;99.90
15959;DHT22;8078;47.822;9.402;2022-09-30T06:05:09;6.90;99.90
15959;DHT22;8078;47.822;9.402;2022-09-30T06:07:36;6.90;99.90
15959;DHT22;8078;47.822;9.402;2022-09-30T06:10:04;6.90;99.90
15959;DHT22;8078;47.822;9.402;2022-09-30T06:12:31;7.00;99.90
15959;DHT22;8078;47.822;9.402;2022-09-30T06:14:56;7.00;99.90
15959;DHT22;8078;47.822;9.402;2022-09-30T06:17:22;7.00;99.90
15959;DHT22;8078;47.822;9.402;2022-09-30T06:19:48;7.00;99.90
15959;DHT22;8078;47.822;9.402;2022-09-30T06:22:17;7.00;99.90
15959;DHT22;8078;47.822;9.402;2022-09-30T06:24:43;7.00;99.90
15959;DHT22;8078;47.822;9.402;2022-09-30T06:27:09;7.00;99.90
15959;DHT22;8078;47.822;9.402;2022-09-30T06:29:35;7.00;99.90
15959;DHT22;8078;47.822;9.402;2022-09-30T06:32:01;7.10;99.90
15959;DHT22;8078;47.822;9.402;2022-09-30T06:34:26;7.10;99.90
15959;DHT22;8078;47.822;9.402;2022-09-30T06:36:52;7.10;99.90
15959;DHT22;8078;47.822;9.402;2022-09-30T06:39:19;7.10;99.90
15959;DHT22;8078;47.822;9.402;2022-09-30T06:41:45;7.20;99.90
15959;DHT22;8078;47.822;9.402;2022-09-30T06:44:11;7.20;99.90
15959;DHT22;8078;47.822;9.402;2022-09-30T06:46:37;7.20;99.90
15959;DHT22;8078;47.822;9.402;2022-09-30T06:49:02;7.30;99.90
15959;DHT22;8078;47.822;9.402;2022-09-30T06:51:29;7.30;99.90
15959;DHT22;8078;47.822;9.402;2022-09-30T06:53:58;7.40;99.90
15959;DHT22;8078;47.822;9.402;2022-09-30T06:56:24;7.40;99.90
15959;DHT22;8078;47.822;9.402;2022-09-30T06:58:50;7.40;99.90
15959;DHT22;8078;47.822;9.402;2022-09-30T07:01:16;7.40;99.90
15959;DHT22;8078;47.822;9.402;2022-09-30T07:03:43;7.40;99.90
15959;DHT22;8078;47.822;9.402;2022-09-30T07:06:10;7.40;99.90
15959;DHT22;8078;47.822;9.402;2022-09-30T07:08:37;7.40;99.90
15959;DHT22;8078;47.822;9.402;2022-09-30T07:11:12;7.50;99.90
15959;DHT22;8078;47.822;9.402;2022-09-30T07:13:44;7.50;99.90
15959;DHT22;8078;47.822;9.402;2022-09-30T07:16:12;7.60;99.90
15959;DHT22;8078;47.822;9.402;2022-09-30T07:18:38;7.60;99.90
15959;DHT22;8078;47.822;9.402;2022-09-30T07:21:06;7.70;99.90
15959;DHT22;8078;47.822;9.402;2022-09-30T07:23:32;7.80;99.90
15959;DHT22;8078;47.822;9.402;2022-09-30T07:25:59;7.80;99.90
15959;DHT22;8078;47.822;9.402;2022-09-30T07:28:29;7.90;99.90
15959;DHT22;8078;47.822;9.402;2022-09-30T07:31:07;7.90;99.90
15959;DHT22;8078;47.822;9.402;2022-09-30T07:33:32;7.90;99.90
15959;DHT22;8078;47.822;9.402;2022-09-30T07:36:00;7.80;99.90
15959;DHT22;8078;47.822;9.402;2022-09-30T07:38:29;7.90;99.90
15959;DHT22;8078;47.822;9.402;2022-09-30T07:40:59;7.80;99.90
15959;DHT22;8078;47.822;9.402;2022-09-30T07:43:26;7.70;99.90
15959;DHT22;8078;47.822;9.402;2022-09-30T07:46:08;7.70;99.90
15959;DHT22;8078;47.822;9.402;2022-09-30T07:48:36;7.70;99.90
15959;DHT22;8078;47.822;9.402;2022-09-30T07:51:13;7.70;99.90
15959;DHT22;8078;47.822;9.402;2022-09-30T07:53:45;7.70;99.90
15959;DHT22;8078;47.822;9.402;2022-09-30T07:56:12;7.60;99.90
15959;DHT22;8078;47.822;9.402;2022-09-30T07:58:38;7.70;99.90
15959;DHT22;8078;47.822;9.402;2022-09-30T08:01:05;7.70;99.90
15959;DHT22;8078;47.822;9.402;2022-09-30T08:03:32;7.60;99.90
15959;DHT22;8078;47.822;9.402;2022-09-30T08:06:03;7.60;99.90
15959;DHT22;8078;47.822;9.402;2022-09-30T08:08:29;7.60;99.90
15959;DHT22;8078;47.822;9.402;2022-09-30T08:10:58;7.70;99.90
15959;DHT22;8078;47.822;9.402;2022-09-30T08:13:24;7.70;99.90
15959;DHT22;8078;47.822;9.402;2022-09-30T08:15:49;7.70;99.90
15959;DHT22;8078;47.822;9.402;2022-09-30T08:18:15;7.80;99.90
15959;DHT22;8078;47.822;9.402;2022-09-30T08:20:40;7.80;99.90
15959;DHT22;8078;47.822;9.402;2022-09-30T08:23:06;7.80;99.90
15959;DHT22;8078;47.822;9.402;2022-09-30T08:25:31;7.80;99.90
15959;DHT22;8078;47.822;9.402;2022-09-30T08:27:57;7.80;99.90
15959;DHT22;8078;47.822;9.402;2022-09-30T08:30:23;7.90;99.90
15959;DHT22;8078;47.822;9.402;2022-09-30T08:32:48;8.00;99.90
15959;DHT22;8078;47.822;9.402;2022-09-30T08:35:14;8.00;99.90
15959;DHT22;8078;47.822;9.402;2022-09-30T08:37:40;8.00;99.90
15959;DHT22;8078;47.822;9.402;2022-09-30T08:40:08;8.10;99.90
15959;DHT22;8078;47.822;9.402;2022-09-30T08:42:50;8.10;99.90
15959;DHT22;8078;47.822;9.402;2022-09-30T08:45:39;8.30;99.90
15959;DHT22;8078;47.822;9.402;2022-09-30T08:48:27;8.40;99.90
15959;DHT22;8078;47.822;9.402;2022-09-30T08:51:14;8.50;99.90
15959;DHT22;8078;47.822;9.402;2022-09-30T08:53:45;8.40;99.90
15959;DHT22;8078;47.822;9.402;2022-09-30T08:56:26;8.50;99.90
15959;DHT22;8078;47.822;9.402;2022-09-30T08:59:00;8.50;99.90
15959;DHT22;8078;47.822;9.402;2022-09-30T09:01:32;8.60;99.90
15959;DHT22;8078;47.822;9.402;2022-09-30T09:03:59;8.50;99.90
15959;DHT22;8078;47.822;9.402;2022-09-30T09:06:28;8.50;99.90
15959;DHT22;8078;47.822;9.402;2022-09-30T09:09:22;8.50;99.90
15959;DHT22;8078;47.822;9.402;2022-09-30T09:15:04;8.60;99.90
15959;DHT22;8078;47.822;9.402;2022-09-30T09:20:31;8.90;99.90
15959;DHT22;8078;47.822;9.402;2022-09-30T09:23:00;9.00;99.90
15959;DHT22;8078;47.822;9.402;2022-09-30T09:25:27;9.10;99.90
15959;DHT22;8078;47.822;9.402;2022-09-30T09:28:01;9.30;99.90
15959;DHT22;8078;47.822;9.402;2022-09-30T09:30:33;9.40;99.90
15959;DHT22;8078;47.822;9.402;2022-09-30T09:35:53;9.60;99.90
15959;DHT22;8078;47.822;9.402;2022-09-30T09:38:30;9.80;99.90
15959;DHT22;8078;47.822;9.402;2022-09-30T09:46:25;9.90;99.90
15959;DHT22;8078;47.822;9.402;2022-09-30T09:51:39;9.90;99.90
15959;DHT22;8078;47.822;9.402;2022-09-30T09:54:09;9.80;99.90
15959;DHT22;8078;47.822;9.402;2022-09-30T09:56:36;9.90;99.90
15959;DHT22;8078;47.822;9.402;2022-09-30T09:59:14;10.10;99.90
15959;DHT22;8078;47.822;9.402;2022-09-30T10:01:48;10.10;99.90
15959;DHT22;8078;47.822;9.402;2022-09-30T10:04:23;10.10;99.90
15959;DHT22;8078;47.822;9.402;2022-09-30T10:06:59;10.10;99.90
15959;DHT22;8078;47.822;9.402;2022-09-30T10:09:33;10.10;99.90
15959;DHT22;8078;47.822;9.402;2022-09-30T10:14:37;10.10;99.90
15959;DHT22;8078;47.822;9.402;2022-09-30T10:17:21;10.10;99.90
15959;DHT22;8078;47.822;9.402;2022-09-30T10:19:52;10.20;99.90
15959;DHT22;8078;47.822;9.402;2022-09-30T10:22:24;10.10;99.90
15959;DHT22;8078;47.822;9.402;2022-09-30T10:24:51;10.10;99.90
15959;DHT22;8078;47.822;9.402;2022-09-30T10:27:32;10.00;99.90
15959;DHT22;8078;47.822;9.402;2022-09-30T10:29:59;10.10;99.90
15959;DHT22;8078;47.822;9.402;2022-09-30T10:32:25;10.20;99.90
15959;DHT22;8078;47.822;9.402;2022-09-30T10:35:19;10.50;99.90
15959;DHT22;8078;47.822;9.402;2022-09-30T10:37:53;10.70;99.90
15959;DHT22;8078;47.822;9.402;2022-09-30T10:40:24;10.90;99.90
15959;DHT22;8078;47.822;9.402;2022-09-30T10:42:52;11.20;99.90
15959;DHT22;8078;47.822;9.402;2022-09-30T10:45:24;11.20;99.90
15959;DHT22;8078;47.822;9.402;2022-09-30T10:47:53;11.10;99.90
15959;DHT22;8078;47.822;9.402;2022-09-30T10:50:21;11.20;99.90
15959;DHT22;8078;47.822;9.402;2022-09-30T10:55:41;11.30;99.90
15959;DHT22;8078;47.822;9.402;2022-09-30T11:01:22;11.50;99.90
15959;DHT22;8078;47.822;9.402;2022-09-30T11:04:03;11.60;99.90
15959;DHT22;8078;47.822;9.402;2022-09-30T11:06:31;11.90;99.90
15959;DHT22;8078;47.822;9.402;2022-09-30T11:11:52;12.40;99.90
15959;DHT22;8078;47.822;9.402;2022-09-30T11:17:28;12.30;99.90
15959;DHT22;8078;47.822;9.402;2022-09-30T11:20:13;12.50;99.90
15959;DHT22;8078;47.822;9.402;2022-09-30T11:22:52;12.30;99.90
15959;DHT22;8078;47.822;9.402;2022-09-30T11:28:57;12.20;99.90
15959;DHT22;8078;47.822;9.402;2022-09-30T11:31:29;12.40;99.90
15959;DHT22;8078;47.822;9.402;2022-09-30T11:45:27;12.30;99.90
15959;DHT22;8078;47.822;9.402;2022-09-30T11:53:14;12.60;99.90
15959;DHT22;8078;47.822;9.402;2022-09-30T11:58:45;12.70;99.90
15959;DHT22;8078;47.822;9.402;2022-09-30T12:01:29;12.60;99.90
15959;DHT22;8078;47.822;9.402;2022-09-30T12:06:32;11.90;99.90
15959;DHT22;8078;47.822;9.402;2022-09-30T12:09:39;12.00;99.90
15959;DHT22;8078;47.822;9.402;2022-09-30T12:12:03;12.20;99.90
15959;DHT22;8078;47.822;9.402;2022-09-30T12:14:54;12.30;99.90
15959;DHT22;8078;47.822;9.402;2022-09-30T12:19:57;13.60;99.90
15959;DHT22;8078;47.822;9.402;2022-09-30T12:22:40;14.30;99.90
15959;DHT22;8078;47.822;9.402;2022-09-30T12:25:18;14.90;99.90
15959;DHT22;8078;47.822;9.402;2022-09-30T12:27:50;15.10;99.90
15959;DHT22;8078;47.822;9.402;2022-09-30T12:30:19;15.30;99.90
15959;DHT22;8078;47.822;9.402;2022-09-30T12:33:15;14.80;99.90
15959;DHT22;8078;47.822;9.402;2022-09-30T12:36:04;14.80;99.90
15959;DHT22;8078;47.822;9.402;2022-09-30T12:47:07;14.00;99.90
15959;DHT22;8078;47.822;9.402;2022-09-30T12:49:38;13.80;99.90
15959;DHT22;8078;47.822;9.402;2022-09-30T12:52:11;14.00;99.90
15959;DHT22;8078;47.822;9.402;2022-09-30T12:54:46;13.80;99.90
15959;DHT22;8078;47.822;9.402;2022-09-30T12:57:23;13.90;99.90
15959;DHT22;8078;47.822;9.402;2022-09-30T12:59:55;13.90;99.90
15959;DHT22;8078;47.822;9.402;2022-09-30T13:02:28;13.80;99.90
15959;DHT22;8078;47.822;9.402;2022-09-30T13:13:22;13.70;99.90
15959;DHT22;8078;47.822;9.402;2022-09-30T13:15:54;13.60;99.90
15959;DHT22;8078;47.822;9.402;2022-09-30T13:23:45;12.60;99.90
15959;DHT22;8078;47.822;9.402;2022-09-30T13:31:26;12.50;99.90
15959;DHT22;8078;47.822;9.402;2022-09-30T13:36:40;12.70;99.90
15959;DHT22;8078;47.822;9.402;2022-09-30T13:42:29;13.20;99.90
15959;DHT22;8078;47.822;9.402;2022-09-30T13:45:02;12.90;99.90
15959;DHT22;8078;47.822;9.402;2022-09-30T13:53:20;13.90;99.90
15959;DHT22;8078;47.822;9.402;2022-09-30T13:55:48;14.20;99.90
15959;DHT22;8078;47.822;9.402;2022-09-30T14:09:39;15.50;99.90
15959;DHT22;8078;47.822;9.402;2022-09-30T14:12:24;15.90;99.90
15959;DHT22;8078;47.822;9.402;2022-09-30T14:15:29;16.10;99.90
15959;DHT22;8078;47.822;9.402;2022-09-30T14:20:57;15.30;99.90
15959;DHT22;8078;47.822;9.402;2022-09-30T14:23:26;15.00;99.90
15959;DHT22;8078;47.822;9.402;2022-09-30T14:26:02;14.60;99.90
15959;DHT22;8078;47.822;9.402;2022-09-30T14:28:46;14.20;99.90
15959;DHT22;8078;47.822;9.402;2022-09-30T14:31:14;13.60;99.90
15959;DHT22;8078;47.822;9.402;2022-09-30T14:33:42;13.20;99.90
15959;DHT22;8078;47.822;9.402;2022-09-30T14:36:17;12.60;99.90
15959;DHT22;8078;47.822;9.402;2022-09-30T14:38:46;12.30;99.90
15959;DHT22;8078;47.822;9.402;2022-09-30T14:41:20;12.20;99.90
15959;DHT22;8078;47.822;9.402;2022-09-30T14:43:49;12.20;99.90
15959;DHT22;8078;47.822;9.402;2022-09-30T14:46:29;12.40;99.90
15959;DHT22;8078;47.822;9.402;2022-09-30T14:48:59;12.60;99.90
15959;DHT22;8078;47.822;9.402;2022-09-30T14:51:26;13.00;99.90
15959;DHT22;8078;47.822;9.402;2022-09-30T14:53:54;13.50;99.90
15959;DHT22;8078;47.822;9.402;2022-09-30T14:56:25;14.10;99.90
15959;DHT22;8078;47.822;9.402;2022-09-30T14:58:51;15.00;99.90
15959;DHT22;8078;47.822;9.402;2022-09-30T15:01:19;16.00;99.90
15959;DHT22;8078;47.822;9.402;2022-09-30T15:04:12;17.00;99.90
15959;DHT22;8078;47.822;9.402;2022-09-30T15:06:43;18.00;99.90
15959;DHT22;8078;47.822;9.402;2022-09-30T15:11:46;19.10;99.90
15959;DHT22;8078;47.822;9.402;2022-09-30T15:14:14;19.50;99.90
15959;DHT22;8078;47.822;9.402;2022-09-30T15:16:53;19.40;99.90
15959;DHT22;8078;47.822;9.402;2022-09-30T15:19:28;18.30;99.90
15959;DHT22;8078;47.822;9.402;2022-09-30T15:21:56;17.30;99.90
15959;DHT22;8078;47.822;9.402;2022-09-30T15:24:25;15.70;99.90
15959;DHT22;8078;47.822;9.402;2022-09-30T15:26:52;14.40;99.90
15959;DHT22;8078;47.822;9.402;2022-09-30T15:29:20;13.50;99.90
15959;DHT22;8078;47.822;9.402;2022-09-30T15:34:25;13.10;99.90
15959;DHT22;8078;47.822;9.402;2022-09-30T15:37:02;13.50;99.90
15959;DHT22;8078;47.822;9.402;2022-09-30T15:39:36;14.30;99.90
15959;DHT22;8078;47.822;9.402;2022-09-30T15:44:53;16.60;99.90
15959;DHT22;8078;47.822;9.402;2022-09-30T15:47:19;17.50;99.90
15959;DHT22;8078;47.822;9.402;2022-09-30T15:49:46;18.20;99.90
15959;DHT22;8078;47.822;9.402;2022-09-30T15:52:35;18.90;99.90
15959;DHT22;8078;47.822;9.402;2022-09-30T15:55:30;19.30;99.90
15959;DHT22;8078;47.822;9.402;2022-09-30T15:57:49;19.60;99.90
15959;DHT22;8078;47.822;9.402;2022-09-30T16:00:38;19.50;99.90
15959;DHT22;8078;47.822;9.402;2022-09-30T16:03:21;19.00;99.90
15959;DHT22;8078;47.822;9.402;2022-09-30T16:05:48;17.70;99.90
15959;DHT22;8078;47.822;9.402;2022-09-30T16:08:23;17.00;99.90
15959;DHT22;8078;47.822;9.402;2022-09-30T16:10:55;16.20;99.90
15959;DHT22;8078;47.822;9.402;2022-09-30T16:13:26;15.10;99.90
15959;DHT22;8078;47.822;9.402;2022-09-30T16:15:54;14.40;99.90
15959;DHT22;8078;47.822;9.402;2022-09-30T16:18:26;13.70;99.90
15959;DHT22;8078;47.822;9.402;2022-09-30T16:28:40;11.70;99.90
15959;DHT22;8078;47.822;9.402;2022-09-30T16:31:08;11.30;99.90
15959;DHT22;8078;47.822;9.402;2022-09-30T16:33:36;11.00;99.90
15959;DHT22;8078;47.822;9.402;2022-09-30T16:36:03;10.80;99.90
15959;DHT22;8078;47.822;9.402;2022-09-30T16:40:54;10.10;99.90
15959;DHT22;8078;47.822;9.402;2022-09-30T16:43:22;9.90;99.90
15959;DHT22;8078;47.822;9.402;2022-09-30T16:45:51;9.70;99.90
15959;DHT22;8078;47.822;9.402;2022-09-30T16:48:18;9.50;99.90
15959;DHT22;8078;47.822;9.402;2022-09-30T16:50:47;9.30;99.90
15959;DHT22;8078;47.822;9.402;2022-09-30T16:53:13;9.20;99.90
15959;DHT22;8078;47.822;9.402;2022-09-30T16:55:39;9.00;99.90
15959;DHT22;8078;47.822;9.402;2022-09-30T16:58:05;8.90;99.90
15959;DHT22;8078;47.822;9.402;2022-09-30T17:00:31;8.70;99.90
15959;DHT22;8078;47.822;9.402;2022-09-30T17:02:57;8.60;99.90
15959;DHT22;8078;47.822;9.402;2022-09-30T17:07:52;8.20;99.90
15959;DHT22;8078;47.822;9.402;2022-09-30T17:10:24;8.10;99.90
15959;DHT22;8078;47.822;9.402;2022-09-30T17:12:50;8.00;99.90
15959;DHT22;8078;47.822;9.402;2022-09-30T17:15:18;7.90;99.90
15959;DHT22;8078;47.822;9.402;2022-09-30T17:17:44;7.70;99.90
15959;DHT22;8078;47.822;9.402;2022-09-30T17:20:09;7.70;99.90
15959;DHT22;8078;47.822;9.402;2022-09-30T17:22:35;7.60;99.90
15959;DHT22;8078;47.822;9.402;2022-09-30T17:25:01;7.50;99.90
15959;DHT22;8078;47.822;9.402;2022-09-30T17:27:26;7.50;99.90
15959;DHT22;8078;47.822;9.402;2022-09-30T17:29:52;7.40;99.90
15959;DHT22;8078;47.822;9.402;2022-09-30T17:32:17;7.40;99.90
15959;DHT22;8078;47.822;9.402;2022-09-30T17:34:43;7.30;99.90
15959;DHT22;8078;47.822;9.402;2022-09-30T17:37:09;7.30;99.90
15959;DHT22;8078;47.822;9.402;2022-09-30T17:39:35;7.20;99.90
15959;DHT22;8078;47.822;9.402;2022-09-30T17:42:00;7.10;99.90
15959;DHT22;8078;47.822;9.402;2022-09-30T17:44:44;7.10;99.90
15959;DHT22;8078;47.822;9.402;2022-09-30T17:47:12;7.10;99.90
15959;DHT22;8078;47.822;9.402;2022-09-30T17:49:37;7.10;99.90
15959;DHT22;8078;47.822;9.402;2022-09-30T17:52:03;7.10;99.90
15959;DHT22;8078;47.822;9.402;2022-09-30T17:54:28;7.10;99.90
15959;DHT22;8078;47.822;9.402;2022-09-30T17:56:55;7.10;99.90
15959;DHT22;8078;47.822;9.402;2022-09-30T17:59:22;7.20;99.90
15959;DHT22;8078;47.822;9.402;2022-09-30T18:01:50;7.20;99.90
15959;DHT22;8078;47.822;9.402;2022-09-30T18:04:16;7.30;99.90
15959;DHT22;8078;47.822;9.402;2022-09-30T18:06:43;7.30;99.90
15959;DHT22;8078;47.822;9.402;2022-09-30T18:09:09;7.40;99.90
15959;DHT22;8078;47.822;9.402;2022-09-30T18:11:35;7.40;99.90
15959;DHT22;8078;47.822;9.402;2022-09-30T18:14:01;7.30;99.90
15959;DHT22;8078;47.822;9.402;2022-09-30T18:16:28;7.30;99.90
15959;DHT22;8078;47.822;9.402;2022-09-30T18:18:56;7.30;99.90
15959;DHT22;8078;47.822;9.402;2022-09-30T18:21:22;7.30;99.90
15959;DHT22;8078;47.822;9.402;2022-09-30T18:23:50;7.30;99.90
15959;DHT22;8078;47.822;9.402;2022-09-30T18:26:16;7.20;99.90
15959;DHT22;8078;47.822;9.402;2022-09-30T18:28:41;7.20;99.90
15959;DHT22;8078;47.822;9.402;2022-09-30T18:31:08;7.10;99.90
15959;DHT22;8078;47.822;9.402;2022-09-30T18:33:34;7.10;99.90
15959;DHT22;8078;47.822;9.402;2022-09-30T18:36:00;7.00;99.90
15959;DHT22;8078;47.822;9.402;2022-09-30T18:38:26;7.00;99.90
15959;DHT22;8078;47.822;9.402;2022-09-30T18:40:52;7.00;99.90
15959;DHT22;8078;47.822;9.402;2022-09-30T18:43:19;6.80;99.90
15959;DHT22;8078;47.822;9.402;2022-09-30T18:45:55;6.80;99.90
15959;DHT22;8078;47.822;9.402;2022-09-30T18:48:22;6.80;99.90
15959;DHT22;8078;47.822;9.402;2022-09-30T18:50:48;6.80;99.90
15959;DHT22;8078;47.822;9.402;2022-09-30T18:53:19;7.00;99.90
15959;DHT22;8078;47.822;9.402;2022-09-30T18:55:45;7.00;99.90
15959;DHT22;8078;47.822;9.402;2022-09-30T18:58:10;7.10;99.90
15959;DHT22;8078;47.822;9.402;2022-09-30T19:00:36;7.10;99.90
15959;DHT22;8078;47.822;9.402;2022-09-30T19:03:02;7.30;99.90
15959;DHT22;8078;47.822;9.402;2022-09-30T19:05:28;7.30;99.90
15959;DHT22;8078;47.822;9.402;2022-09-30T19:07:54;7.30;99.90
15959;DHT22;8078;47.822;9.402;2022-09-30T19:10:20;7.20;99.90
15959;DHT22;8078;47.822;9.402;2022-09-30T19:12:46;7.10;99.90
15959;DHT22;8078;47.822;9.402;2022-09-30T19:15:13;7.10;99.90
15959;DHT22;8078;47.822;9.402;2022-09-30T19:17:42;7.30;99.90
15959;DHT22;8078;47.822;9.402;2022-09-30T19:20:09;7.30;99.90
15959;DHT22;8078;47.822;9.402;2022-09-30T19:22:35;7.30;99.90
15959;DHT22;8078;47.822;9.402;2022-09-30T19:25:06;7.30;99.90
15959;DHT22;8078;47.822;9.402;2022-09-30T19:27:32;7.30;99.90
15959;DHT22;8078;47.822;9.402;2022-09-30T19:30:01;7.30;99.90